Time;durP1;ratioP1;P1;durP2;ratioP2;P2;SDS_P1;SDS_P2;PMS_P1;PMS_P2;Temp;Humidity;BMP_temperature;BMP_pressure;BME280_temperature;BME280_humidity;BME280_pressure;Samples;Min_cycle;Max_cycle;Signal;HPM_P1;HPM_P2
2022/03/28 00:00:20;;;;;;;6.00;2.85;;;7.30;99.90;;;;;;5069424;28;20052;-88
2022/03/28 00:02:49;;;;;;;6.07;3.10;;;6.90;99.90;;;;;;5055881;28;20144;-88
2022/03/28 00:05:15;;;;;;;5.05;3.00;;;6.70;99.90;;;;;;5052749;28;20061;-88
2022/03/28 00:07:44;;;;;;;7.87;3.13;;;6.80;99.90;;;;;;5071202;28;20046;-88
2022/03/28 00:10:11;;;;;;;6.13;3.10;;;6.90;99.90;;;;;;5066112;28;20040;-88
2022/03/28 00:12:40;;;;;;;7.28;3.50;;;6.90;99.90;;;;;;5058069;28;20126;-88
2022/03/28 00:15:09;;;;;;;8.32;4.15;;;7.00;99.90;;;;;;5061139;28;20080;-88
2022/03/28 00:17:38;;;;;;;5.65;3.22;;;6.00;99.90;;;;;;5058274;28;20081;-88
2022/03/28 00:20:12;;;;;;;8.10;3.47;;;7.00;99.90;;;;;;5064646;28;20074;-88
2022/03/28 00:22:48;;;;;;;10.10;4.43;;;7.00;99.90;;;;;;5083758;28;20402;-88
2022/03/28 00:25:34;;;;;;;7.22;4.25;;;7.00;99.90;;;;;;5073519;28;20080;-88
2022/03/28 00:28:05;;;;;;;9.82;4.22;;;7.00;99.90;;;;;;5062778;28;20105;-87
2022/03/28 00:30:31;;;;;;;11.38;4.38;;;7.00;99.90;;;;;;5087495;28;20052;-88
2022/03/28 00:32:59;;;;;;;9.30;4.43;;;6.80;99.90;;;;;;5082668;28;20036;-89
2022/03/28 00:35:27;;;;;;;8.48;4.57;;;7.00;99.90;;;;;;5074328;28;20041;-88
2022/03/28 00:37:57;;;;;;;13.20;5.80;;;6.90;99.90;;;;;;5077831;28;20044;-88
2022/03/28 00:40:28;;;;;;;9.95;5.43;;;7.80;99.90;;;;;;5068644;28;20124;-88
2022/03/28 00:43:11;;;;;;;9.75;6.05;;;6.90;99.90;;;;;;5056343;28;20049;-88
2022/03/28 00:45:46;;;;;;;7.80;4.65;;;7.00;99.90;;;;;;5072426;28;20087;-88
2022/03/28 00:48:13;;;;;;;10.93;5.63;;;7.00;99.90;;;;;;5075204;28;20154;-88
2022/03/28 00:50:42;;;;;;;8.25;4.65;;;8.00;99.90;;;;;;5082796;28;20044;-88
2022/03/28 00:53:22;;;;;;;8.98;5.18;;;6.60;99.90;;;;;;5059561;28;20470;-87
2022/03/28 00:55:51;;;;;;;14.20;5.32;;;7.00;99.90;;;;;;5065499;28;20425;-88
2022/03/28 00:58:29;;;;;;;10.82;5.80;;;6.80;99.90;;;;;;5082438;28;20068;-88
2022/03/28 01:00:58;;;;;;;8.65;5.43;;;6.80;99.90;;;;;;5076269;28;20040;-87
2022/03/28 01:03:54;;;;;;;10.93;5.85;;;6.80;99.90;;;;;;5057005;28;20571;-88
2022/03/28 01:06:23;;;;;;;9.10;5.00;;;6.90;99.90;;;;;;5071259;28;20159;-88
2022/03/28 01:08:59;;;;;;;11.93;6.15;;;6.70;99.90;;;;;;5063363;28;20063;-88
2022/03/28 01:11:37;;;;;;;12.80;6.93;;;6.90;99.90;;;;;;5068332;28;20048;-88
2022/03/28 01:14:06;;;;;;;11.38;6.13;;;6.70;99.90;;;;;;5046809;28;20040;-92
2022/03/28 01:19:29;;;;;;;;;;;;;;;;;;;;;
2022/03/28 01:21:59;;;;;;;12.38;7.22;;;6.60;99.90;;;;;;5078749;28;20044;-88
2022/03/28 01:24:27;;;;;;;14.10;7.60;;;6.70;99.90;;;;;;5064707;28;20147;-88
2022/03/28 01:26:55;;;;;;;8.88;6.47;;;6.70;99.90;;;;;;5085720;28;20044;-88
2022/03/28 01:29:31;;;;;;;15.10;6.32;;;6.80;99.90;;;;;;5082212;28;20144;-88
2022/03/28 01:32:02;;;;;;;13.80;7.85;;;6.70;99.90;;;;;;5056085;28;20385;-88
2022/03/28 01:34:33;;;;;;;15.30;8.93;;;6.80;99.90;;;;;;5065372;28;20441;-88
2022/03/28 01:37:02;;;;;;;14.90;8.60;;;6.70;99.90;;;;;;5050663;28;20050;-88
2022/03/28 01:39:32;;;;;;;16.13;8.30;;;5.90;99.90;;;;;;5077833;28;20135;-88
2022/03/28 01:42:05;;;;;;;;;;;6.80;99.90;;;;;;5075809;28;20049;-88
2022/03/28 01:44:34;;;;;;;13.15;7.07;;;6.80;99.90;;;;;;5061390;28;19982;-89
2022/03/28 01:46:59;;;;;;;10.57;6.97;;;6.70;99.90;;;;;;5064189;28;20142;-88
2022/03/28 01:49:35;;;;;;;;;;;;;;;;;;;;;
2022/03/28 01:52:02;;;;;;;16.13;7.32;;;6.60;99.90;;;;;;5054688;28;20487;-87
2022/03/28 01:54:51;;;;;;;15.77;6.97;;;6.70;99.90;;;;;;5075820;28;20446;-88
2022/03/28 01:57:22;;;;;;;9.88;6.45;;;6.70;99.90;;;;;;5052736;28;20073;-88
2022/03/28 01:59:53;;;;;;;11.90;6.13;;;6.70;99.90;;;;;;5078928;28;20531;-88
2022/03/28 02:02:21;;;;;;;12.98;7.57;;;6.70;99.90;;;;;;5090400;28;20380;-88
2022/03/28 02:04:55;;;;;;;13.20;6.70;;;6.70;99.90;;;;;;5052907;28;20379;-88
2022/03/28 02:07:29;;;;;;;7.53;4.60;;;6.70;99.90;;;;;;5065288;28;20548;-88
2022/03/28 02:10:18;;;;;;;;;;;;;;;;;;;;;
2022/03/28 02:13:14;;;;;;;7.03;4.68;;;6.70;99.90;;;;;;5075957;28;20044;-88
2022/03/28 02:15:50;;;;;;;6.22;4.28;;;7.10;99.90;;;;;;5088021;28;20087;-88
2022/03/28 02:18:21;;;;;;;5.82;4.22;;;6.50;99.90;;;;;;5048232;28;20040;-88
2022/03/28 02:20:52;;;;;;;4.75;3.50;;;6.40;99.90;;;;;;5086941;28;20110;-88
2022/03/28 02:23:32;;;;;;;;;;;;;;;;;;;;;
2022/03/28 02:26:02;;;;;;;6.80;4.57;;;6.40;99.90;;;;;;5083828;28;20422;-89
2022/03/28 02:28:36;;;;;;;7.63;4.95;;;6.30;99.90;;;;;;5063052;28;20043;-88
2022/03/28 02:31:05;;;;;;;6.40;4.97;;;6.90;99.90;;;;;;5050385;28;20406;-88
2022/03/28 02:33:36;;;;;;;8.03;4.73;;;6.40;99.90;;;;;;5068822;28;20040;-88
2022/03/28 02:36:05;;;;;;;9.75;5.70;;;6.50;99.90;;;;;;5077173;28;20048;-88
2022/03/28 02:38:46;;;;;;;;;;;;;;;;;;;;;
2022/03/28 02:41:23;;;;;;;5.65;3.72;;;6.50;99.90;;;;;;5080505;28;20052;-92
2022/03/28 02:44:07;;;;;;;7.60;3.90;;;6.50;99.90;;;;;;5080710;28;20482;-88
2022/03/28 02:46:33;;;;;;;9.98;4.45;;;7.10;99.90;;;;;;5062729;28;20072;-88
2022/03/28 02:49:15;;;;;;;6.57;3.87;;;6.50;99.90;;;;;;5069591;28;20075;-88
2022/03/28 02:51:46;;;;;;;6.05;4.32;;;6.30;99.90;;;;;;5063277;28;20135;-88
2022/03/28 02:54:16;;;;;;;6.05;3.53;;;6.40;99.90;;;;;;5079727;28;20078;-87
2022/03/28 02:56:42;;;;;;;6.30;4.40;;;6.50;99.90;;;;;;5058648;28;20590;-88
2022/03/28 02:59:22;;;;;;;;;;;;;;;;;;;;;
2022/03/28 03:01:51;;;;;;;7.93;4.13;;;6.90;99.90;;;;;;5071678;28;20051;-88
2022/03/28 03:04:19;;;;;;;6.35;3.88;;;6.40;99.90;;;;;;5068790;28;20064;-88
2022/03/28 03:06:50;;;;;;;9.48;4.82;;;6.50;99.90;;;;;;5067185;28;20118;-88
2022/03/28 03:09:16;;;;;;;6.53;4.40;;;6.20;99.90;;;;;;5097961;28;20040;-88
2022/03/28 03:11:49;;;;;;;7.07;4.13;;;6.30;99.90;;;;;;5066904;28;20048;-87
2022/03/28 03:14:27;;;;;;;11.07;5.07;;;6.20;99.90;;;;;;5074114;28;20071;-88
2022/03/28 03:16:53;;;;;;;11.32;4.68;;;6.20;99.90;;;;;;5053693;28;20048;-88
2022/03/28 03:19:24;;;;;;;7.43;4.60;;;6.20;99.90;;;;;;5044466;28;20043;-88
2022/03/28 03:21:50;;;;;;;5.88;4.63;;;6.20;99.90;;;;;;5058642;28;20039;-87
2022/03/28 03:24:16;;;;;;;9.17;5.10;;;5.60;99.90;;;;;;5092432;28;20424;-88
2022/03/28 03:26:42;;;;;;;6.53;4.67;;;6.10;99.90;;;;;;5061788;28;20210;-87
2022/03/28 03:29:11;;;;;;;7.68;4.32;;;6.10;99.90;;;;;;5063774;28;20036;-88
2022/03/28 03:31:40;;;;;;;8.30;5.25;;;6.10;99.90;;;;;;5063924;28;20037;-89
2022/03/28 03:34:11;;;;;;;9.45;5.65;;;5.50;99.90;;;;;;5071656;28;20055;-88
2022/03/28 03:36:40;;;;;;;6.90;4.78;;;6.10;99.90;;;;;;5070407;28;20044;-88
2022/03/28 03:39:09;;;;;;;8.73;5.95;;;6.00;99.90;;;;;;5059927;28;20040;-88
2022/03/28 03:41:38;;;;;;;9.00;5.22;;;5.90;99.90;;;;;;5058458;28;20052;-88
2022/03/28 03:44:24;;;;;;;15.90;6.05;;;6.10;99.90;;;;;;5090332;28;20152;-88
2022/03/28 03:46:52;;;;;;;11.95;6.93;;;5.50;99.90;;;;;;5040740;28;20049;-88
2022/03/28 03:49:30;;;;;;;;;;;;;;;;;;;;;
2022/03/28 03:52:19;;;;;;;11.13;5.40;;;5.90;99.90;;;;;;5065461;28;20055;-87
2022/03/28 03:54:45;;;;;;;12.70;6.78;;;5.90;99.90;;;;;;5049862;28;20040;-88
2022/03/28 03:57:14;;;;;;;10.02;5.25;;;6.00;99.90;;;;;;5059459;28;20048;-90
2022/03/28 03:59:45;;;;;;;11.38;6.43;;;5.90;99.90;;;;;;5044261;28;20055;-87
2022/03/28 04:02:13;;;;;;;11.73;6.45;;;5.60;99.90;;;;;;5082273;28;20127;-88
2022/03/28 04:04:44;;;;;;;13.75;7.15;;;6.00;99.90;;;;;;5037946;28;20053;-88
2022/03/28 04:07:10;;;;;;;13.38;6.95;;;6.00;99.90;;;;;;5057597;28;20048;-87
2022/03/28 04:09:49;;;;;;;;;;;;;;;;;;;;;
2022/03/28 04:12:20;;;;;;;13.90;6.97;;;6.80;99.90;;;;;;5064972;28;20089;-87
2022/03/28 04:15:00;;;;;;;;;;;;;;;;;;;;;
2022/03/28 04:17:38;;;;;;;13.45;8.80;;;6.00;99.90;;;;;;5059802;28;20037;-89
2022/03/28 04:20:06;;;;;;;11.25;6.97;;;6.00;99.90;;;;;;5102146;28;20045;-88
2022/03/28 04:22:35;;;;;;;8.70;5.93;;;5.90;99.90;;;;;;5062461;28;20502;-91
2022/03/28 04:25:13;;;;;;;9.65;5.57;;;5.90;99.90;;;;;;5051782;28;20047;-87
2022/03/28 04:27:47;;;;;;;11.48;6.95;;;5.80;99.90;;;;;;5076170;28;20044;-88
2022/03/28 04:30:29;;;;;;;10.88;5.15;;;5.90;99.90;;;;;;5051550;28;20039;-88
2022/03/28 04:33:00;;;;;;;7.90;5.75;;;5.90;99.90;;;;;;5065684;28;20486;-88
2022/03/28 04:35:43;;;;;;;9.18;5.03;;;5.60;99.90;;;;;;5047171;28;20044;-88
2022/03/28 04:38:39;;;;;;;9.35;5.15;;;5.70;99.90;;;;;;5066569;28;20124;-88
2022/03/28 04:41:06;;;;;;;8.00;4.93;;;5.80;99.90;;;;;;5080652;28;20134;-88
2022/03/28 04:43:32;;;;;;;10.57;5.55;;;5.70;99.90;;;;;;5062690;28;20051;-88
2022/03/28 04:46:08;;;;;;;6.87;4.33;;;5.70;99.90;;;;;;5062010;28;20041;-87
2022/03/28 04:48:40;;;;;;;8.10;5.18;;;5.70;99.90;;;;;;5068132;28;20041;-88
2022/03/28 04:51:08;;;;;;;4.82;4.35;;;5.60;99.90;;;;;;5066567;28;20052;-88
2022/03/28 04:53:46;;;;;;;;;;;;;;;;;;;;;
2022/03/28 04:56:21;;;;;;;7.05;4.25;;;5.60;99.90;;;;;;5056961;28;20059;-88
2022/03/28 04:58:50;;;;;;;7.35;5.00;;;4.90;99.90;;;;;;5061910;28;20123;-91
2022/03/28 05:01:18;;;;;;;7.43;4.00;;;5.50;99.90;;;;;;5068624;28;20052;-88
2022/03/28 05:03:52;;;;;;;6.65;3.58;;;5.50;99.90;;;;;;5071511;28;20040;-88
2022/03/28 05:06:24;;;;;;;6.13;3.35;;;4.70;99.90;;;;;;5082936;28;20106;-88
2022/03/28 05:08:58;;;;;;;7.63;3.97;;;5.50;99.90;;;;;;5060448;28;20490;-88
2022/03/28 05:11:39;;;;;;;5.90;3.78;;;5.40;99.90;;;;;;5064378;28;20098;-88
2022/03/28 05:14:21;;;;;;;;;;;;;;;;;;;;;
2022/03/28 05:16:50;;;;;;;6.20;3.75;;;5.50;99.90;;;;;;5074015;28;20429;-88
2022/03/28 05:19:16;;;;;;;7.13;3.75;;;5.50;99.90;;;;;;5078005;28;20063;-88
2022/03/28 05:21:54;;;;;;;;;;;;;;;;;;;;;
2022/03/28 05:24:27;;;;;;;7.45;2.78;;;5.20;99.90;;;;;;5075538;28;20054;-87
2022/03/28 05:27:02;;;;;;;5.30;2.60;;;5.60;99.90;;;;;;5062637;28;20049;-87
2022/03/28 05:29:31;;;;;;;5.45;3.17;;;6.20;99.90;;;;;;5065393;28;20036;-87
2022/03/28 05:31:59;;;;;;;3.55;1.90;;;5.40;99.90;;;;;;5088943;28;20044;-88
2022/03/28 05:34:30;;;;;;;4.30;2.67;;;5.30;99.90;;;;;;5068890;28;20052;-88
2022/03/28 05:37:06;;;;;;;2.13;1.75;;;5.20;99.90;;;;;;5069222;28;20079;-88
2022/03/28 05:39:42;;;;;;;4.68;1.58;;;5.50;99.90;;;;;;5060179;28;20095;-89
2022/03/28 05:42:16;;;;;;;2.78;1.58;;;5.40;99.90;;;;;;5070403;28;20041;-88
2022/03/28 05:44:52;;;;;;;2.47;1.77;;;5.50;99.90;;;;;;5056564;28;20047;-90
2022/03/28 05:47:23;;;;;;;2.72;1.80;;;5.80;99.90;;;;;;5061194;28;20494;-88
2022/03/28 05:49:54;;;;;;;3.72;1.70;;;5.40;99.90;;;;;;5090509;28;20047;-88
2022/03/28 05:52:23;;;;;;;2.95;1.67;;;5.50;99.90;;;;;;5072340;28;20044;-88
2022/03/28 05:55:03;;;;;;;2.38;1.77;;;5.30;99.90;;;;;;5079404;28;20054;-87
2022/03/28 05:57:46;;;;;;;2.15;1.45;;;5.30;99.90;;;;;;5045322;28;20059;-87
2022/03/28 06:00:14;;;;;;;2.33;0.85;;;5.40;99.90;;;;;;5039819;28;20036;-88
2022/03/28 06:03:07;;;;;;;;;;;;;;;;;;;;;
2022/03/28 06:05:36;;;;;;;3.40;1.48;;;5.40;99.90;;;;;;5076907;28;20053;-81
2022/03/28 06:08:11;;;;;;;2.83;1.63;;;5.40;99.90;;;;;;5078429;28;20109;-86
2022/03/28 06:10:37;;;;;;;4.38;2.15;;;5.30;99.90;;;;;;5056436;28;20044;-85
2022/03/28 06:13:03;;;;;;;5.87;2.30;;;6.30;99.90;;;;;;5066765;28;20097;-85
2022/03/28 06:15:32;;;;;;;5.25;3.05;;;5.40;99.90;;;;;;5078631;28;20041;-85
2022/03/28 06:17:58;;;;;;;5.60;2.92;;;5.30;99.90;;;;;;5079774;28;20047;-85
2022/03/28 06:20:24;;;;;;;6.73;2.73;;;5.30;99.90;;;;;;5086808;28;20047;-85
2022/03/28 06:22:51;;;;;;;4.13;2.70;;;6.60;99.90;;;;;;5064661;28;20087;-90
2022/03/28 06:25:19;;;;;;;4.60;2.72;;;5.40;99.90;;;;;;5063300;28;20044;-90
2022/03/28 06:27:45;;;;;;;4.10;1.98;;;5.40;99.90;;;;;;5077447;28;20104;-83
2022/03/28 06:30:14;;;;;;;4.60;2.43;;;5.40;99.90;;;;;;5080869;28;20037;-88
2022/03/28 06:32:40;;;;;;;2.53;2.30;;;4.50;99.90;;;;;;5078569;28;20070;-87
2022/03/28 06:35:08;;;;;;;6.53;2.95;;;5.50;99.90;;;;;;5083143;28;20112;-84
2022/03/28 06:37:34;;;;;;;7.18;2.83;;;5.50;99.90;;;;;;5064559;28;20048;-82
2022/03/28 06:40:01;;;;;;;9.65;3.50;;;5.50;99.90;;;;;;5066751;28;20032;-84
2022/03/28 06:42:26;;;;;;;6.45;3.63;;;6.20;99.90;;;;;;5066577;28;20043;-85
2022/03/28 06:44:52;;;;;;;5.23;2.90;;;5.50;99.90;;;;;;5061140;28;20101;-90
2022/03/28 06:47:20;;;;;;;6.47;3.93;;;5.50;99.90;;;;;;5060468;28;20044;-84
2022/03/28 06:49:46;;;;;;;6.88;4.07;;;5.50;99.90;;;;;;5059324;28;20044;-84
2022/03/28 06:52:12;;;;;;;5.73;3.73;;;5.60;99.90;;;;;;5046896;28;20198;-82
2022/03/28 06:54:38;;;;;;;8.80;5.10;;;5.70;99.90;;;;;;5069035;28;20046;-85
2022/03/28 06:57:03;;;;;;;9.53;4.57;;;5.60;99.90;;;;;;5038744;28;20553;-85
2022/03/28 06:59:32;;;;;;;7.53;4.03;;;5.70;99.90;;;;;;5045153;28;20032;-85
2022/03/28 07:01:58;;;;;;;6.50;3.90;;;5.70;99.90;;;;;;5056134;28;20578;-85
2022/03/28 07:04:26;;;;;;;9.00;4.47;;;5.60;99.90;;;;;;5072783;28;20135;-86
2022/03/28 07:06:57;;;;;;;9.95;5.18;;;5.70;99.90;;;;;;5071447;28;20079;-86
2022/03/28 07:09:25;;;;;;;7.43;4.82;;;5.70;99.90;;;;;;5055217;28;20394;-87
2022/03/28 07:12:06;;;;;;;;;;;;;;;;;;;;;
2022/03/28 07:14:32;;;;;;;9.05;4.38;;;5.80;99.90;;;;;;5073126;28;20044;-89
2022/03/28 07:16:59;;;;;;;9.48;5.72;;;5.70;99.90;;;;;;5074459;28;20093;-91
2022/03/28 07:19:25;;;;;;;11.80;4.93;;;5.80;99.90;;;;;;5056074;28;20048;-87
2022/03/28 07:22:02;;;;;;;9.23;5.65;;;5.80;99.90;;;;;;5074127;28;20082;-86
2022/03/28 07:24:31;;;;;;;7.20;4.28;;;5.90;99.90;;;;;;5076236;28;20082;-88
2022/03/28 07:27:04;;;;;;;10.57;5.85;;;6.80;99.90;;;;;;5041000;28;20045;-87
2022/03/28 07:29:32;;;;;;;9.88;4.53;;;5.90;99.90;;;;;;5078933;28;20051;-87
2022/03/28 07:32:02;;;;;;;11.68;5.25;;;5.90;99.90;;;;;;5055959;28;20403;-91
2022/03/28 07:34:32;;;;;;;11.00;4.78;;;5.90;99.90;;;;;;5036357;28;20056;-87
2022/03/28 07:37:15;;;;;;;;;;;;;;;;;;;;;
2022/03/28 07:39:57;;;;;;;8.20;4.10;;;5.90;99.90;;;;;;5088134;28;20052;-91
2022/03/28 07:42:26;;;;;;;7.57;4.10;;;5.90;99.90;;;;;;5072973;28;20083;-88
2022/03/28 07:44:56;;;;;;;7.53;3.35;;;5.90;99.90;;;;;;5075671;28;20048;-87
2022/03/28 07:47:25;;;;;;;7.07;4.32;;;5.70;99.90;;;;;;5073686;28;20428;-87
2022/03/28 07:49:57;;;;;;;10.68;5.55;;;6.00;99.90;;;;;;5055102;28;20048;-87
2022/03/28 07:52:23;;;;;;;7.10;4.15;;;6.00;99.90;;;;;;5071374;28;20049;-87
2022/03/28 07:54:52;;;;;;;9.27;4.78;;;6.00;99.90;;;;;;5055310;28;20048;-86
2022/03/28 07:57:21;;;;;;;7.75;5.18;;;6.00;99.90;;;;;;5054864;28;20055;-86
2022/03/28 07:59:52;;;;;;;4.78;3.33;;;6.10;99.90;;;;;;5055070;28;20076;-87
2022/03/28 08:02:20;;;;;;;11.02;4.43;;;6.00;99.90;;;;;;5071393;28;20491;-87
2022/03/28 08:05:09;;;;;;;12.43;6.18;;;6.10;99.90;;;;;;5072465;28;20123;-87
2022/03/28 08:07:38;;;;;;;7.88;4.43;;;5.80;99.90;;;;;;5071545;28;20059;-87
2022/03/28 08:10:12;;;;;;;6.40;4.25;;;6.20;99.90;;;;;;5071079;28;20094;-88
2022/03/28 08:12:46;;;;;;;11.07;5.13;;;6.10;99.90;;;;;;5054836;28;20055;-87
2022/03/28 08:15:22;;;;;;;8.25;5.00;;;6.20;99.90;;;;;;5066571;28;20101;-87
2022/03/28 08:17:51;;;;;;;8.25;4.03;;;6.20;99.90;;;;;;5075654;28;20069;-87
2022/03/28 08:20:21;;;;;;;5.15;3.65;;;6.20;99.90;;;;;;5078013;28;20490;-87
2022/03/28 08:22:59;;;;;;;7.60;4.60;;;6.30;99.90;;;;;;5056812;28;20040;-87
2022/03/28 08:25:30;;;;;;;9.10;4.30;;;6.30;99.90;;;;;;5056045;28;20058;-84
2022/03/28 08:27:56;;;;;;;12.07;5.80;;;6.30;99.90;;;;;;5055009;28;20442;-84
2022/03/28 08:30:22;;;;;;;6.53;4.33;;;6.40;99.90;;;;;;5065537;28;20043;-84
2022/03/28 08:32:48;;;;;;;10.80;5.53;;;6.30;99.90;;;;;;5091347;28;20048;-84
2022/03/28 08:35:14;;;;;;;6.53;4.13;;;6.40;99.90;;;;;;5088978;28;20046;-85
2022/03/28 08:37:40;;;;;;;7.13;3.85;;;7.10;99.90;;;;;;5074769;28;20087;-84
2022/03/28 08:40:06;;;;;;;10.33;4.57;;;6.40;99.90;;;;;;5065641;28;20080;-84
2022/03/28 08:42:35;;;;;;;9.70;5.13;;;6.10;99.90;;;;;;5054061;28;20131;-84
2022/03/28 08:45:01;;;;;;;9.65;6.03;;;6.50;99.90;;;;;;5059792;28;20048;-84
2022/03/28 08:47:28;;;;;;;10.13;6.18;;;6.50;99.90;;;;;;5074181;28;20390;-84
2022/03/28 08:49:56;;;;;;;6.97;4.78;;;6.50;99.90;;;;;;5049055;28;20067;-83
2022/03/28 08:52:24;;;;;;;9.90;4.25;;;6.50;99.90;;;;;;5071649;28;20403;-86
2022/03/28 08:54:53;;;;;;;9.90;5.97;;;6.50;99.90;;;;;;5054610;28;20050;-84
2022/03/28 08:57:19;;;;;;;8.60;4.75;;;6.60;99.90;;;;;;5054639;28;20509;-84
2022/03/28 08:59:45;;;;;;;8.13;5.20;;;6.60;99.90;;;;;;5071251;28;20513;-84
2022/03/28 09:02:44;;;;;;;10.43;4.70;;;6.60;99.90;;;;;;5081861;28;20048;-89
2022/03/28 09:05:14;;;;;;;9.73;5.88;;;6.70;99.90;;;;;;5053849;28;20083;-85
2022/03/28 09:07:41;;;;;;;11.82;6.20;;;6.90;99.90;;;;;;5054320;28;20495;-85
2022/03/28 09:10:16;;;;;;;9.52;5.78;;;6.70;99.90;;;;;;5070554;28;20513;-85
2022/03/28 09:16:05;;;;;;;8.43;4.68;;;6.80;99.90;;;;;;5053558;28;20506;-85
2022/03/28 09:18:35;;;;;;;7.65;5.07;;;6.70;99.90;;;;;;5040022;28;20131;-83
2022/03/28 09:21:11;;;;;;;9.55;5.00;;;6.80;99.90;;;;;;5075295;28;20560;-85
2022/03/28 09:23:49;;;;;;;8.50;5.03;;;6.80;99.90;;;;;;5070687;28;20056;-81
2022/03/28 09:26:20;;;;;;;;;;;6.80;99.90;;;;;;5075061;28;20384;-87
2022/03/28 09:28:49;;;;;;;10.75;4.65;;;6.90;99.90;;;;;;5074759;28;19928;-84
2022/03/28 09:31:15;;;;;;;6.60;4.72;;;6.90;99.90;;;;;;5038193;28;20049;-84
2022/03/28 09:33:56;;;;;;;5.90;4.78;;;6.90;99.90;;;;;;5040248;28;20624;-84
2022/03/28 09:36:44;;;;;;;6.43;4.18;;;7.00;99.90;;;;;;5057484;28;20045;-84
2022/03/28 09:39:18;;;;;;;7.25;4.25;;;7.00;99.90;;;;;;5084933;28;20071;-84
2022/03/28 09:42:04;;;;;;;4.32;3.63;;;7.00;99.90;;;;;;5065013;28;20048;-85
2022/03/28 09:44:42;;;;;;;8.82;4.75;;;6.80;99.90;;;;;;5084549;28;20128;-85
2022/03/28 09:47:17;;;;;;;5.97;4.15;;;7.10;99.90;;;;;;5074350;28;20052;-85
2022/03/28 09:49:45;;;;;;;7.05;5.03;;;7.00;99.90;;;;;;5074623;28;20040;-83
2022/03/28 09:52:20;;;;;;;10.88;4.28;;;7.10;99.90;;;;;;5066360;28;20129;-85
2022/03/28 09:54:55;;;;;;;4.63;3.50;;;7.20;99.90;;;;;;5086093;28;20483;-85
2022/03/28 09:57:34;;;;;;;6.45;4.10;;;7.40;99.90;;;;;;5077307;28;20065;-91
2022/03/28 10:00:22;;;;;;;8.43;3.70;;;7.40;99.90;;;;;;5077729;28;20059;-85
2022/03/28 10:02:50;;;;;;;7.85;5.00;;;7.50;99.90;;;;;;5094739;28;20044;-84
2022/03/28 10:05:16;;;;;;;4.80;3.63;;;7.50;99.90;;;;;;5077349;28;20410;-85
2022/03/28 10:07:46;;;;;;;5.37;3.43;;;7.60;99.90;;;;;;5060376;28;20048;-85
2022/03/28 10:10:17;;;;;;;9.05;4.07;;;8.20;99.90;;;;;;5077401;28;20176;-85
2022/03/28 10:12:43;;;;;;;6.78;4.75;;;7.70;99.90;;;;;;5093809;28;20112;-85
2022/03/28 10:15:09;;;;;;;5.68;4.18;;;7.00;99.90;;;;;;5064854;28;20548;-85
2022/03/28 10:17:35;;;;;;;5.63;4.13;;;7.90;99.90;;;;;;5056879;28;20044;-85
2022/03/28 10:20:03;;;;;;;6.77;3.97;;;8.00;99.90;;;;;;5057506;28;20076;-85
2022/03/28 10:22:32;;;;;;;6.38;3.72;;;8.00;99.90;;;;;;5056486;28;20045;-85
2022/03/28 10:25:03;;;;;;;7.50;3.97;;;8.10;99.90;;;;;;5057310;28;20131;-85
2022/03/28 10:27:31;;;;;;;7.60;3.90;;;8.30;99.90;;;;;;5073412;28;20041;-85
2022/03/28 10:30:27;;;;;;;4.28;3.15;;;8.30;99.90;;;;;;5056818;28;20137;-85
2022/03/28 10:33:14;;;;;;;5.15;3.42;;;8.40;99.90;;;;;;5057208;28;20049;-84
2022/03/28 10:36:17;;;;;;;3.65;3.08;;;8.50;99.90;;;;;;5056544;28;20066;-86
2022/03/28 10:38:43;;;;;;;5.65;3.65;;;8.60;99.90;;;;;;5054277;28;20079;-85
2022/03/28 10:41:15;;;;;;;4.47;3.37;;;8.70;99.90;;;;;;5043942;28;20186;-85
2022/03/28 10:43:41;;;;;;;5.97;3.80;;;8.70;99.90;;;;;;5038135;28;20056;-85
2022/03/28 10:46:09;;;;;;;6.77;3.73;;;8.70;99.90;;;;;;5084168;28;20044;-85
2022/03/28 10:48:58;;;;;;;7.88;3.30;;;8.70;99.90;;;;;;5072868;28;20067;-85
2022/03/28 10:51:29;;;;;;;6.47;5.03;;;8.80;99.90;;;;;;5090052;28;20055;-85
2022/03/28 10:54:01;;;;;;;5.22;3.50;;;8.90;99.90;;;;;;5056857;28;20135;-84
2022/03/28 10:56:40;;;;;;;8.20;4.35;;;8.90;99.90;;;;;;5069652;28;20074;-88
2022/03/28 10:59:08;;;;;;;7.43;3.42;;;9.50;99.90;;;;;;5055853;28;20400;-85
2022/03/28 11:01:39;;;;;;;6.13;4.28;;;9.10;99.90;;;;;;5067315;28;20144;-86
2022/03/28 11:04:26;;;;;;;7.47;4.15;;;9.00;99.90;;;;;;5036195;28;20055;-86
2022/03/28 11:07:00;;;;;;;6.55;3.78;;;9.00;99.90;;;;;;5038338;28;20071;-83
2022/03/28 11:09:48;;;;;;;7.05;3.60;;;9.40;99.90;;;;;;5056132;28;20127;-86
2022/03/28 11:12:38;;;;;;;7.45;3.47;;;9.00;99.90;;;;;;5072960;28;20040;-85
2022/03/28 11:15:23;;;;;;;5.25;4.00;;;9.10;99.90;;;;;;5055902;28;20052;-87
2022/03/28 11:17:58;;;;;;;6.65;3.70;;;9.20;99.90;;;;;;5045496;28;20051;-85
2022/03/28 11:20:26;;;;;;;7.88;4.05;;;9.30;99.90;;;;;;5056188;28;20040;-86
2022/03/28 11:23:10;;;;;;;6.18;3.55;;;9.40;99.90;;;;;;5063432;28;20061;-86
2022/03/28 11:25:58;;;;;;;7.43;3.60;;;9.70;99.90;;;;;;5075506;28;20081;-86
2022/03/28 11:28:32;;;;;;;4.35;3.70;;;9.80;99.90;;;;;;5074079;28;20105;-86
2022/03/28 11:31:07;;;;;;;4.78;3.17;;;9.90;99.90;;;;;;5075718;28;20054;-86
2022/03/28 11:33:35;;;;;;;8.15;4.35;;;10.00;99.90;;;;;;5060254;28;20131;-91
2022/03/28 11:36:03;;;;;;;5.60;4.10;;;10.10;99.90;;;;;;5072598;28;20056;-86
2022/03/28 11:38:40;;;;;;;8.10;4.25;;;10.10;99.90;;;;;;5055611;28;20087;-87
2022/03/28 11:41:08;;;;;;;5.65;3.58;;;10.20;99.90;;;;;;5088812;28;20075;-84
2022/03/28 11:43:43;;;;;;;5.57;3.45;;;10.30;99.90;;;;;;5071709;28;20123;-90
2022/03/28 11:46:18;;;;;;;7.13;3.85;;;10.40;99.90;;;;;;5055046;28;20048;-86
2022/03/28 11:48:58;;;;;;;6.57;4.05;;;10.40;99.90;;;;;;5054715;28;20044;-85
2022/03/28 11:51:32;;;;;;;5.57;3.92;;;10.40;99.90;;;;;;5055356;28;20041;-84
2022/03/28 11:54:08;;;;;;;5.07;3.78;;;10.50;99.90;;;;;;5054860;28;20048;-85
2022/03/28 11:58:14;;;;;;;6.20;4.05;;;10.60;99.90;;;;;;5055322;28;20483;-89
2022/03/28 11:59:22;;;;;;;;;;;11.00;99.90;;;;;;5058219;28;20052;-85
2022/03/28 12:01:58;;;;;;;4.80;3.60;;;11.40;99.90;;;;;;5054410;28;19927;-85
2022/03/28 12:04:35;;;;;;;6.18;3.85;;;11.90;99.90;;;;;;5072087;28;20048;-85
2022/03/28 12:07:06;;;;;;;5.80;3.80;;;12.30;99.90;;;;;;5074405;28;20052;-86
2022/03/28 12:09:32;;;;;;;7.15;4.35;;;12.60;99.90;;;;;;5073371;28;20050;-85
2022/03/28 12:12:00;;;;;;;5.77;3.33;;;12.90;99.90;;;;;;5044539;28;20040;-85
2022/03/28 12:14:27;;;;;;;6.20;3.72;;;13.10;99.90;;;;;;5065122;28;20546;-85
2022/03/28 12:16:55;;;;;;;6.53;4.05;;;13.20;99.90;;;;;;5058650;28;20498;-85
2022/03/28 12:19:26;;;;;;;6.07;3.38;;;13.40;99.90;;;;;;5057702;28;20048;-86
2022/03/28 12:21:53;;;;;;;6.93;4.57;;;13.50;99.90;;;;;;5083216;28;20057;-85
2022/03/28 12:24:25;;;;;;;6.20;4.10;;;13.60;99.90;;;;;;5061007;28;20048;-84
2022/03/28 12:26:54;;;;;;;6.65;3.75;;;13.90;99.90;;;;;;5068283;28;20051;-85
2022/03/28 12:29:20;;;;;;;7.32;4.55;;;13.30;99.90;;;;;;5074640;28;20608;-85
2022/03/28 12:31:49;;;;;;;5.60;3.97;;;14.10;99.90;;;;;;5074302;28;20044;-85
2022/03/28 12:34:21;;;;;;;6.35;4.22;;;14.30;99.90;;;;;;5074753;28;20055;-85
2022/03/28 12:36:50;;;;;;;8.30;4.90;;;14.40;99.90;;;;;;5074042;28;20040;-85
2022/03/28 12:39:19;;;;;;;6.30;4.47;;;14.60;99.90;;;;;;5074768;28;20048;-85
2022/03/28 12:41:49;;;;;;;4.88;3.75;;;14.90;99.90;;;;;;5074229;28;20055;-85
2022/03/28 12:44:18;;;;;;;5.97;4.10;;;14.90;99.90;;;;;;5074492;28;20510;-85
2022/03/28 12:47:00;;;;;;;4.63;3.75;;;15.00;99.90;;;;;;5078426;28;20449;-86
2022/03/28 12:49:26;;;;;;;8.35;4.78;;;14.30;99.90;;;;;;5054388;28;20137;-85
2022/03/28 12:51:54;;;;;;;10.80;4.37;;;16.20;99.90;;;;;;5058126;28;20103;-85
2022/03/28 12:54:23;;;;;;;6.63;4.43;;;15.40;99.90;;;;;;5075348;28;20336;-85
2022/03/28 12:56:56;;;;;;;7.90;4.90;;;15.50;99.90;;;;;;5057751;28;20052;-85
2022/03/28 12:59:28;;;;;;;6.72;4.72;;;15.60;99.90;;;;;;5058651;28;20127;-85
2022/03/28 13:02:16;;;;;;;5.50;3.88;;;15.60;99.90;;;;;;5058133;28;20486;-85
2022/03/28 13:04:49;;;;;;;5.65;4.03;;;15.70;99.90;;;;;;5058570;28;20063;-90
2022/03/28 13:07:23;;;;;;;8.13;4.75;;;14.60;99.90;;;;;;5074820;28;20048;-85
2022/03/28 13:09:59;;;;;;;6.85;4.13;;;15.00;99.90;;;;;;5058035;28;20049;-85
2022/03/28 13:12:54;;;;;;;9.73;3.95;;;15.00;99.90;;;;;;5075446;28;20048;-85
2022/03/28 13:15:22;;;;;;;7.35;4.38;;;15.00;99.90;;;;;;5071391;28;20056;-85
2022/03/28 13:18:05;;;;;;;9.20;4.57;;;15.10;99.90;;;;;;5074388;28;20045;-86
2022/03/28 13:20:32;;;;;;;8.52;4.82;;;15.10;99.90;;;;;;5074798;28;20131;-86
2022/03/28 13:22:59;;;;;;;7.10;3.88;;;15.00;99.90;;;;;;5057102;28;20114;-85
2022/03/28 13:25:28;;;;;;;6.30;4.10;;;15.10;99.90;;;;;;5057952;28;20080;-85
2022/03/28 13:28:02;;;;;;;6.90;4.90;;;15.00;99.90;;;;;;5057285;28;20044;-86
2022/03/28 13:30:45;;;;;;;6.10;4.38;;;14.40;99.90;;;;;;5057774;28;20044;-85
2022/03/28 13:33:14;;;;;;;7.53;4.40;;;15.30;99.90;;;;;;5057518;28;20055;-85
2022/03/28 13:35:46;;;;;;;5.22;4.57;;;15.50;99.90;;;;;;5074659;28;20390;-85
2022/03/28 13:38:24;;;;;;;10.40;4.57;;;15.50;99.90;;;;;;5073924;28;20138;-85
2022/03/28 13:40:54;;;;;;;6.38;4.22;;;15.60;99.90;;;;;;5057441;28;20052;-90
2022/03/28 13:43:26;;;;;;;6.28;4.18;;;15.70;99.90;;;;;;5057580;28;20040;-86
2022/03/28 13:46:02;;;;;;;;;;;;;;;;;;;;;